Time;durP1;ratioP1;P1;durP2;ratioP2;P2;SDS_P1;SDS_P2;PMS_P1;PMS_P2;Temp;Humidity;BMP_temperature;BMP_pressure;BME280_temperature;BME280_humidity;BME280_pressure;Samples;Min_cycle;Max_cycle;Signal;HPM_P1;HPM_P2
2022/05/16 00:00:19;;;;;;;;;;;;;;;23.54;48.90;95519.94;2088240;28;1645;-64
2022/05/16 00:01:22;;;;;;;;;;;;;;;23.50;48.93;95518.69;2080021;28;1634;-63
2022/05/16 00:02:24;;;;;;;;;;;;;;;23.47;48.96;95519.97;2088967;28;1706;-62
2022/05/16 00:03:28;;;;;;;;;;;;;;;23.45;49.14;95519.38;2089330;28;1544;-64
2022/05/16 00:04:30;;;;;;;;;;;;;;;23.44;49.07;95517.72;2089274;28;1689;-64
2022/05/16 00:05:33;;;;;;;;;;;;;;;23.43;48.94;95519.56;2089830;28;1017;-64
2022/05/16 00:06:35;;;;;;;;;;;;;;;23.42;49.31;95512.56;2089627;28;1655;-64
2022/05/16 00:07:38;;;;;;;;;;;;;;;23.42;49.37;95517.09;2089664;28;1178;-64
2022/05/16 00:08:39;;;;;;;;;;;;;;;23.41;49.14;95518.94;2090194;28;1703;-63
2022/05/16 00:09:42;;;;;;;;;;;;;;;23.41;49.14;95518.13;2091377;28;1275;-63
2022/05/16 00:10:45;;;;;;;;;;;;;;;23.40;49.42;95511.13;2090549;28;1643;-63
2022/05/16 00:11:47;;;;;;;;;;;;;;;23.39;49.16;95510.31;2086797;28;1724;-60
2022/05/16 00:12:50;;;;;;;;;;;;;;;23.40;49.40;95517.31;2078074;28;1641;-63
2022/05/16 00:13:52;;;;;;;;;;;;;;;23.47;48.83;95514.59;2091104;28;1311;-63
2022/05/16 00:14:54;;;;;;;;;;;;;;;23.55;48.57;95521.56;2091393;28;1121;-62
2022/05/16 00:15:56;;;;;;;;;;;;;;;23.59;48.65;95512.03;2090226;28;1528;-63
2022/05/16 00:16:59;;;;;;;;;;;;;;;23.64;48.40;95514.88;2091448;28;1898;-62
2022/05/16 00:18:01;;;;;;;;;;;;;;;23.66;48.52;95510.13;2090776;28;1557;-62
2022/05/16 00:19:05;;;;;;;;;;;;;;;23.68;48.00;95513.41;2090988;28;1351;-60
2022/05/16 00:20:08;;;;;;;;;;;;;;;23.68;48.20;95516.09;2090575;28;1778;-60
2022/05/16 00:21:10;;;;;;;;;;;;;;;23.69;47.92;95517.72;2091582;28;1056;-64
2022/05/16 00:22:12;;;;;;;;;;;;;;;23.68;48.03;95508.88;2091117;28;1121;-62
2022/05/16 00:23:15;;;;;;;;;;;;;;;23.71;48.23;95512.97;2087429;28;1678;-61
2022/05/16 00:24:18;;;;;;;;;;;;;;;23.71;48.06;95507.59;2086462;28;1456;-62
2022/05/16 00:25:21;;;;;;;;;;;;;;;23.72;47.89;95508.44;2091422;28;1021;-62
2022/05/16 00:26:23;;;;;;;;;;;;;;;23.72;47.89;95505.75;2089633;28;1525;-62
2022/05/16 00:27:26;;;;;;;;;;;;;;;23.73;47.77;95515.41;2091048;28;1722;-65
2022/05/16 00:28:27;;;;;;;;;;;;;;;23.72;47.89;95505.75;2091285;28;1836;-61
2022/05/16 00:29:30;;;;;;;;;;;;;;;23.73;48.13;95504.69;2091092;28;1678;-62
2022/05/16 00:30:32;;;;;;;;;;;;;;;23.74;47.78;95509.84;2090914;28;1900;-61
2022/05/16 00:31:35;;;;;;;;;;;;;;;23.74;47.96;95514.41;2091046;28;1646;-61
2022/05/16 00:32:37;;;;;;;;;;;;;;;23.73;47.76;95507.38;2090702;28;1725;-60
2022/05/16 00:33:41;;;;;;;;;;;;;;;23.74;47.68;95509.03;2090007;28;1712;-62
2022/05/16 00:34:45;;;;;;;;;;;;;;;23.74;47.73;95507.16;2086592;28;1133;-62
2022/05/16 00:35:47;;;;;;;;;;;;;;;23.74;47.52;95504.47;2086218;28;1689;-62
2022/05/16 00:36:49;;;;;;;;;;;;;;;23.76;47.58;95509.63;2091278;28;1971;-62
2022/05/16 00:37:52;;;;;;;;;;;;;;;23.75;47.63;95506.13;2091121;28;1539;-62
2022/05/16 00:38:54;;;;;;;;;;;;;;;23.76;47.64;95505.09;2091391;28;1359;-61
2022/05/16 00:39:57;;;;;;;;;;;;;;;23.76;47.56;95502.41;2091254;28;1828;-62
2022/05/16 00:41:01;;;;;;;;;;;;;;;23.76;47.57;95505.09;2089898;28;1638;-61
2022/05/16 00:42:03;;;;;;;;;;;;;;;23.77;47.59;95512.09;2082855;28;1971;-61
2022/05/16 00:43:07;;;;;;;;;;;;;;;23.76;47.79;95499.72;2084702;28;1731;-61
2022/05/16 00:44:09;;;;;;;;;;;;;;;23.77;47.41;95501.34;2091293;28;1014;-62
2022/05/16 00:45:13;;;;;;;;;;;;;;;23.78;47.54;95508.34;2090408;28;1519;-60
2022/05/16 00:46:17;;;;;;;;;;;;;;;23.78;47.38;95513.72;2086556;28;1331;-61
2022/05/16 00:47:20;;;;;;;;;;;;;;;23.80;47.33;95516.19;2086633;28;1513;-62
2022/05/16 00:48:21;;;;;;;;;;;;;;;23.79;47.61;95514.53;2090828;28;1243;-62
2022/05/16 00:49:27;;;;;;;;;;;;;;;23.78;47.42;95518.28;2090839;28;2104;-61
2022/05/16 00:50:31;;;;;;;;;;;;;;;23.78;47.69;95513.72;2090657;28;1441;-61
2022/05/16 00:51:37;;;;;;;;;;;;;;;23.78;47.49;95511.03;2090894;28;1160;-61
2022/05/16 00:52:40;;;;;;;;;;;;;;;23.78;47.43;95516.41;2090596;28;1635;-62
2022/05/16 00:53:44;;;;;;;;;;;;;;;23.79;47.53;95506.50;2091088;28;1710;-62
2022/05/16 00:54:49;;;;;;;;;;;;;;;23.77;47.51;95506.72;2090024;28;2084;-62
2022/05/16 00:55:51;;;;;;;;;;;;;;;23.78;47.58;95512.91;2090602;28;1357;-60
2022/05/16 00:57:00;;;;;;;;;;;;;;;23.78;47.36;95516.41;2089482;28;1547;-60
2022/05/16 00:58:08;;;;;;;;;;;;;;;23.78;47.74;95516.41;2076962;28;1547;-62
2022/05/16 00:59:10;;;;;;;;;;;;;;;23.69;47.51;95498.94;2090880;28;1096;-61
2022/05/16 01:00:17;;;;;;;;;;;;;;;23.79;47.36;95510.03;2089216;28;1481;-61
2022/05/16 01:05:23;;;;;;;;;;;;;;;23.77;47.56;95504.03;2090673;28;1499;-58
2022/05/16 01:06:27;;;;;;;;;;;;;;;23.77;47.76;95501.34;2090977;28;1013;-59
2022/05/16 01:07:31;;;;;;;;;;;;;;;23.77;47.69;95501.34;2091103;28;1189;-58
2022/05/16 01:08:34;;;;;;;;;;;;;;;23.77;47.53;95509.41;2087371;28;1740;-59
2022/05/16 01:09:37;;;;;;;;;;;;;;;23.78;47.72;95512.91;2084278;28;1390;-58
2022/05/16 01:10:40;;;;;;;;;;;;;;;23.76;47.49;95499.72;2090235;28;1778;-63
2022/05/16 01:11:42;;;;;;;;;;;;;;;23.77;47.61;95503.22;2089311;28;1545;-58
2022/05/16 01:12:46;;;;;;;;;;;;;;;23.77;47.64;95512.09;2091013;28;1636;-58
2022/05/16 01:13:47;;;;;;;;;;;;;;;23.67;48.07;95503.72;2090994;28;1133;-59
2022/05/16 01:14:52;;;;;;;;;;;;;;;23.57;48.32;95504.22;2090967;28;1199;-59
2022/05/16 01:15:55;;;;;;;;;;;;;;;23.51;48.41;95506.97;2091026;28;1055;-60
2022/05/16 01:16:57;;;;;;;;;;;;;;;23.47;48.59;95506.53;2091061;28;1052;-58
2022/05/16 01:18:00;;;;;;;;;;;;;;;23.44;48.81;95505.13;2090185;28;1906;-59
2022/05/16 01:19:02;;;;;;;;;;;;;;;23.41;48.99;95502.84;2090933;28;1989;-59
2022/05/16 01:20:06;;;;;;;;;;;;;;;23.41;48.97;95510.06;2084637;28;1508;-60
2022/05/16 01:21:17;;;;;;;;;;;;;;;23.39;49.08;95506.78;2085616;28;1344;-59
2022/05/16 01:22:26;;;;;;;;;;;;;;;23.37;49.22;95500.84;2090349;28;1579;-60
2022/05/16 01:23:31;;;;;;;;;;;;;;;23.36;49.20;95502.69;2090949;28;1662;-57
2022/05/16 01:24:34;;;;;;;;;;;;;;;23.36;48.90;95497.34;2091205;28;1052;-59
2022/05/16 01:25:37;;;;;;;;;;;;;;;23.36;49.25;95494.66;2090312;28;1091;-59
2022/05/16 01:26:39;;;;;;;;;;;;;;;23.36;49.22;95500.00;2091003;28;1093;-60
2022/05/16 01:27:43;;;;;;;;;;;;;;;23.35;48.87;95497.53;2090683;28;1531;-60
2022/05/16 01:28:46;;;;;;;;;;;;;;;23.35;48.94;95498.34;2090901;28;1136;-59
2022/05/16 01:29:49;;;;;;;;;;;;;;;23.35;49.03;95498.34;2090825;28;1639;-60
2022/05/16 01:30:51;;;;;;;;;;;;;;;23.36;48.85;95494.66;2090791;28;1109;-61
2022/05/16 01:31:54;;;;;;;;;;;;;;;23.43;48.84;95495.44;2084728;28;1638;-60
2022/05/16 01:32:57;;;;;;;;;;;;;;;23.47;48.65;95501.19;2087020;28;1117;-60
2022/05/16 01:33:59;;;;;;;;;;;;;;;23.49;48.49;95498.28;2090703;28;1620;-60
2022/05/16 01:35:02;;;;;;;;;;;;;;;23.50;48.70;95500.75;2090205;28;1468;-59
2022/05/16 01:36:04;;;;;;;;;;;;;;;23.52;48.73;95497.84;2089703;28;1633;-60
2022/05/16 01:37:08;;;;;;;;;;;;;;;23.49;48.67;95495.63;2090663;28;1817;-59
2022/05/16 01:38:22;;;;;;;;;;;;;;;23.49;48.64;95493.75;2090362;28;2034;-60
2022/05/16 01:39:25;;;;;;;;;;;;;;;23.49;48.71;95498.28;2090716;28;1100;-60
2022/05/16 01:40:26;;;;;;;;;;;;;;;23.46;48.89;95499.56;2090185;28;1735;-59
2022/05/16 01:41:29;;;;;;;;;;;;;;;23.42;49.04;95495.66;2089627;28;1614;-59
2022/05/16 01:42:31;;;;;;;;;;;;;;;23.43;48.84;95498.13;2090846;28;1052;-60
2022/05/16 01:43:35;;;;;;;;;;;;;;;23.46;49.10;95500.38;2081391;28;1171;-59
2022/05/16 01:44:37;;;;;;;;;;;;;;;23.52;48.87;95495.19;2090625;28;1278;-59
2022/05/16 01:45:42;;;;;;;;;;;;;;;23.57;48.68;95500.72;2089513;28;2541;-60
2022/05/16 01:46:44;;;;;;;;;;;;;;;23.61;48.60;95501.91;2090726;28;1114;-60
2022/05/16 01:47:47;;;;;;;;;;;;;;;23.63;48.55;95499.84;2090237;28;1117;-59
2022/05/16 01:48:49;;;;;;;;;;;;;;;23.65;48.35;95498.56;2090827;28;1330;-60
2022/05/16 01:49:52;;;;;;;;;;;;;;;23.68;48.42;95502.69;2089865;28;1545;-60
2022/05/16 01:50:56;;;;;;;;;;;;;;;23.71;48.34;95501.44;2090532;28;3049;-58
2022/05/16 01:51:59;;;;;;;;;;;;;;;23.71;48.03;95486.16;2090511;28;1682;-60
2022/05/16 01:53:01;;;;;;;;;;;;;;;23.73;48.11;95493.97;2089949;28;1651;-59
2022/05/16 01:54:06;;;;;;;;;;;;;;;23.75;47.86;95492.69;2087521;28;1140;-60
2022/05/16 01:55:08;;;;;;;;;;;;;;;23.75;48.15;95491.88;2085085;28;1511;-60
2022/05/16 01:56:11;;;;;;;;;;;;;;;23.76;47.86;95497.03;2090522;28;1128;-63
2022/05/16 01:57:13;;;;;;;;;;;;;;;23.75;48.04;95491.88;2088874;28;1637;-60
2022/05/16 01:58:16;;;;;;;;;;;;;;;23.73;47.87;95505.50;2090649;28;1902;-59
2022/05/16 01:59:19;;;;;;;;;;;;;;;23.72;48.01;95498.50;2090593;28;1713;-60
2022/05/16 02:00:21;;;;;;;;;;;;;;;23.73;48.20;95499.31;2088913;28;1455;-59
2022/05/16 02:01:24;;;;;;;;;;;;;;;23.66;47.97;95489.47;2090467;28;1661;-59
2022/05/16 02:02:26;;;;;;;;;;;;;;;23.70;48.20;95500.59;2090236;28;1060;-61
2022/05/16 02:03:29;;;;;;;;;;;;;;;23.69;47.94;95504.31;2090477;28;1084;-58
2022/05/16 02:04:30;;;;;;;;;;;;;;;23.71;48.07;95502.25;2090750;28;961;-61
2022/05/16 02:05:33;;;;;;;;;;;;;;;23.66;48.37;95507.44;2085839;28;1693;-58
2022/05/16 02:06:36;;;;;;;;;;;;;;;23.57;48.38;95500.72;2085256;28;1657;-58
2022/05/16 02:07:39;;;;;;;;;;;;;;;23.50;48.58;95508.78;2090339;28;1606;-58
2022/05/16 02:08:42;;;;;;;;;;;;;;;23.45;48.84;95504.09;2090763;28;984;-59
2022/05/16 02:09:46;;;;;;;;;;;;;;;23.42;48.94;95498.31;2090252;28;1024;-59
2022/05/16 02:10:49;;;;;;;;;;;;;;;23.41;48.85;95512.75;2090148;28;1697;-58
2022/05/16 02:11:51;;;;;;;;;;;;;;;23.38;49.19;95511.31;2088717;28;1388;-60
2022/05/16 02:12:56;;;;;;;;;;;;;;;23.37;48.99;95509.69;2090364;28;1665;-60
2022/05/16 02:13:59;;;;;;;;;;;;;;;23.36;48.91;95516.09;2090534;28;1723;-58
2022/05/16 02:15:01;;;;;;;;;;;;;;;23.36;49.18;95517.94;2089314;28;1642;-58
2022/05/16 02:16:04;;;;;;;;;;;;;;;23.35;49.02;95519.00;2090256;28;1183;-58
2022/05/16 02:17:06;;;;;;;;;;;;;;;23.34;48.89;95522.72;2085420;28;1727;-58
2022/05/16 02:18:09;;;;;;;;;;;;;;;23.34;48.93;95517.34;2085907;28;1009;-59
2022/05/16 02:19:11;;;;;;;;;;;;;;;23.33;48.96;95521.88;2090205;28;2001;-59
2022/05/16 02:20:15;;;;;;;;;;;;;;;23.33;49.16;95521.06;2089124;28;1481;-59
2022/05/16 02:25:20;;;;;;;;;;;;;;;23.30;49.11;95516.13;2090201;28;1184;-59
2022/05/16 02:26:21;;;;;;;;;;;;;;;23.30;49.16;95511.59;2088361;28;1490;-60
2022/05/16 02:27:24;;;;;;;;;;;;;;;23.30;48.94;95522.31;2089792;28;1953;-58
2022/05/16 02:28:26;;;;;;;;;;;;;;;23.29;49.00;95515.31;2086105;28;1147;-58
2022/05/16 02:29:29;;;;;;;;;;;;;;;23.28;49.07;95515.50;2085271;28;1691;-58
2022/05/16 02:30:31;;;;;;;;;;;;;;;23.27;49.29;95514.69;2088853;28;1651;-59
2022/05/16 02:31:34;;;;;;;;;;;;;;;23.28;49.15;95519.03;2089959;28;1534;-59
2022/05/16 02:32:36;;;;;;;;;;;;;;;23.29;49.17;95517.19;2089243;28;1112;-59
2022/05/16 02:33:39;;;;;;;;;;;;;;;23.30;49.27;95516.94;2089489;28;1772;-60
2022/05/16 02:34:44;;;;;;;;;;;;;;;23.29;49.09;95519.84;2090558;28;1032;-59
2022/05/16 02:35:47;;;;;;;;;;;;;;;23.28;48.75;95519.03;2090128;28;1647;-60
2022/05/16 02:36:50;;;;;;;;;;;;;;;23.27;48.29;95516.56;2090271;28;1067;-59
2022/05/16 02:37:53;;;;;;;;;;;;;;;23.27;48.96;95513.88;2090045;28;1695;-59
2022/05/16 02:38:55;;;;;;;;;;;;;;;23.27;48.65;95513.88;2090297;28;1986;-59
2022/05/16 02:39:58;;;;;;;;;;;;;;;23.26;48.75;95514.94;2084988;28;1674;-59
2022/05/16 02:41:01;;;;;;;;;;;;;;;23.27;48.80;95521.94;2084290;28;1603;-61
2022/05/16 02:42:04;;;;;;;;;;;;;;;23.28;48.94;95518.19;2090195;28;1132;-60
2022/05/16 02:43:06;;;;;;;;;;;;;;;23.25;48.99;95514.13;2090511;28;1056;-60
2022/05/16 02:44:09;;;;;;;;;;;;;;;23.27;48.80;95508.53;2089970;28;1616;-60
2022/05/16 02:45:11;;;;;;;;;;;;;;;23.27;48.72;95517.38;2089717;28;1552;-58
2022/05/16 02:46:14;;;;;;;;;;;;;;;23.27;48.81;95514.69;2090051;28;1570;-58
2022/05/16 02:47:17;;;;;;;;;;;;;;;23.27;48.77;95514.69;2089524;28;993;-59
2022/05/16 02:48:20;;;;;;;;;;;;;;;23.27;48.84;95516.56;2089835;28;1893;-59
2022/05/16 02:49:22;;;;;;;;;;;;;;;23.27;49.01;95517.38;2089624;28;1517;-60
2022/05/16 02:50:25;;;;;;;;;;;;;;;23.27;49.05;95524.59;2089266;28;1471;-59
2022/05/16 02:51:27;;;;;;;;;;;;;;;23.26;48.66;95515.75;2083379;28;1597;-59
2022/05/16 02:52:30;;;;;;;;;;;;;;;23.27;48.87;95522.75;2088226;28;1528;-59
2022/05/16 02:53:31;;;;;;;;;;;;;;;23.25;48.83;95519.47;2090252;28;1084;-59
2022/05/16 02:54:34;;;;;;;;;;;;;;;23.26;48.83;95517.63;2089667;28;1167;-58
2022/05/16 02:55:36;;;;;;;;;;;;;;;23.25;48.98;95508.75;2088189;28;1684;-58
2022/05/16 02:56:40;;;;;;;;;;;;;;;23.25;48.75;95516.81;2089228;28;1537;-59
2022/05/16 02:57:42;;;;;;;;;;;;;;;23.24;48.96;95510.59;2089977;28;1056;-60
2022/05/16 02:58:45;;;;;;;;;;;;;;;23.25;48.95;95514.13;2090286;28;1014;-59
2022/05/16 02:59:47;;;;;;;;;;;;;;;23.23;49.05;95519.69;2090137;28;1910;-59
2022/05/16 03:00:50;;;;;;;;;;;;;;;23.25;48.93;95522.16;2085192;28;1649;-60
2022/05/16 03:01:51;;;;;;;;;;;;;;;23.24;48.98;95524.00;2081387;28;1105;-59
2022/05/16 03:02:54;;;;;;;;;;;;;;;23.01;43.47;95521.88;2078932;28;1636;-58
2022/05/16 03:03:57;;;;;;;;;;;;;;;22.24;42.61;95525.44;2089774;28;1322;-58
2022/05/16 03:05:00;;;;;;;;;;;;;;;21.79;42.72;95531.44;2090112;28;2128;-59
2022/05/16 03:06:02;;;;;;;;;;;;;;;21.49;43.97;95528.38;2089490;28;1666;-59
2022/05/16 03:07:05;;;;;;;;;;;;;;;21.32;44.02;95532.47;2090187;28;807;-59
2022/05/16 03:08:08;;;;;;;;;;;;;;;21.32;44.12;95529.78;2089935;28;1329;-58
2022/05/16 03:09:09;;;;;;;;;;;;;;;21.20;43.55;95521.56;2089651;28;1990;-59
2022/05/16 03:10:15;;;;;;;;;;;;;;;20.92;43.59;95519.81;2088387;28;1535;-59
2022/05/16 03:11:17;;;;;;;;;;;;;;;20.84;43.49;95522.66;2089806;28;1667;-59
2022/05/16 03:12:22;;;;;;;;;;;;;;;20.73;43.26;95526.72;2090213;28;1074;-58
2022/05/16 03:13:24;;;;;;;;;;;;;;;20.54;42.97;95522.13;2089268;28;1493;-60
2022/05/16 03:14:27;;;;;;;;;;;;;;;20.45;43.32;95528.66;2081686;28;1160;-58
2022/05/16 03:15:30;;;;;;;;;;;;;;;20.45;43.21;95517.97;2088256;28;1497;-58
2022/05/16 03:16:33;;;;;;;;;;;;;;;20.56;43.24;95525.44;2081410;28;1196;-59
2022/05/16 03:17:35;;;;;;;;;;;;;;;20.62;43.17;95527.28;2089440;28;1643;-58
2022/05/16 03:18:38;;;;;;;;;;;;;;;20.66;43.18;95525.88;2088756;28;1513;-59
2022/05/16 03:19:40;;;;;;;;;;;;;;;20.62;43.21;95521.94;2088541;28;1946;-58
2022/05/16 03:20:43;;;;;;;;;;;;;;;20.67;42.99;95522.19;2090057;28;1068;-59
2022/05/16 03:21:45;;;;;;;;;;;;;;;20.58;42.92;95528.72;2090071;28;992;-58
2022/05/16 03:22:47;;;;;;;;;;;;;;;20.51;43.37;95523.34;2090099;28;1105;-58
2022/05/16 03:23:49;;;;;;;;;;;;;;;20.37;43.84;95520.81;2088942;28;1486;-58
2022/05/16 03:24:52;;;;;;;;;;;;;;;20.19;44.19;95526.66;2085852;28;1622;-58
2022/05/16 03:25:54;;;;;;;;;;;;;;;20.15;44.31;95525.41;2084291;28;1168;-58
2022/05/16 03:26:57;;;;;;;;;;;;;;;20.05;45.16;95517.72;2090032;28;1674;-58
2022/05/16 03:28:00;;;;;;;;;;;;;;;20.00;45.81;95514.81;2089417;28;1634;-59
2022/05/16 03:29:03;;;;;;;;;;;;;;;19.95;45.90;95519.94;2089306;28;1702;-58
2022/05/16 03:30:05;;;;;;;;;;;;;;;20.05;46.30;95517.72;2089652;28;1696;-60
2022/05/16 03:31:09;;;;;;;;;;;;;;;19.93;46.40;95508.63;2089211;28;1665;-59
2022/05/16 03:32:11;;;;;;;;;;;;;;;20.16;46.51;95519.03;2090033;28;1053;-60
2022/05/16 03:33:15;;;;;;;;;;;;;;;19.81;48.12;95516.38;2089696;28;1640;-59
2022/05/16 03:34:16;;;;;;;;;;;;;;;19.41;48.19;95527.50;2089774;28;1790;-57
2022/05/16 03:35:19;;;;;;;;;;;;;;;19.10;48.81;95524.34;2087204;28;1520;-59
2022/05/16 03:36:22;;;;;;;;;;;;;;;18.80;49.28;95526.25;2080958;28;1656;-58
2022/05/16 03:37:25;;;;;;;;;;;;;;;18.85;49.80;95526.53;2084762;28;1698;-58
2022/05/16 03:41:07;;;;;;;;;;;;;;;19.28;49.84;95535.34;2089432;28;1466;-60
2022/05/16 03:42:10;;;;;;;;;;;;;;;19.13;49.96;95534.59;2089905;28;1168;-58
2022/05/16 03:43:14;;;;;;;;;;;;;;;19.01;49.50;95531.63;2089461;28;1487;-59
2022/05/16 03:44:17;;;;;;;;;;;;;;;18.89;49.87;95528.59;2089779;28;1136;-59
2022/05/16 03:45:19;;;;;;;;;;;;;;;18.79;50.29;95533.44;2084285;28;1702;-59
2022/05/16 03:46:24;;;;;;;;;;;;;;;18.74;50.25;95533.97;2089067;28;1430;-58
2022/05/16 03:47:26;;;;;;;;;;;;;;;18.62;50.12;95527.47;2087594;28;1239;-59
2022/05/16 03:48:29;;;;;;;;;;;;;;;18.71;50.47;95537.00;2077730;28;1507;-59
2022/05/16 03:49:31;;;;;;;;;;;;;;;18.54;50.02;95541.69;2081958;28;1460;-60
2022/05/16 03:50:34;;;;;;;;;;;;;;;18.44;50.87;95541.16;2089326;28;1117;-59
2022/05/16 03:51:36;;;;;;;;;;;;;;;18.48;50.97;95537.13;2089140;28;2354;-58
2022/05/16 03:52:39;;;;;;;;;;;;;;;18.52;50.36;95543.72;2088894;28;1706;-59
2022/05/16 03:53:46;;;;;;;;;;;;;;;18.38;50.73;95541.06;2089205;28;1121;-58
2022/05/16 03:54:49;;;;;;;;;;;;;;;18.16;50.69;95548.16;2087269;28;1556;-58
2022/05/16 03:55:51;;;;;;;;;;;;;;;18.03;51.28;95544.28;2080239;28;1198;-59
2022/05/16 03:56:54;;;;;;;;;;;;;;;18.04;51.57;95550.41;2082826;28;1496;-59
2022/05/16 03:57:57;;;;;;;;;;;;;;;17.95;51.43;95552.34;2087281;28;1469;-58
2022/05/16 03:59:01;;;;;;;;;;;;;;;18.01;51.55;95553.44;2083753;28;1499;-59
2022/05/16 04:00:04;;;;;;;;;;;;;;;18.20;51.66;95555.56;2083033;28;1983;-60
2022/05/16 04:01:06;;;;;;;;;;;;;;;18.35;51.03;95562.72;2083154;28;2079;-58
2022/05/16 04:02:09;;;;;;;;;;;;;;;18.47;50.94;95562.09;2082885;28;1441;-60
2022/05/16 04:03:11;;;;;;;;;;;;;;;18.72;51.25;95565.31;2081648;28;1714;-60
2022/05/16 04:04:13;;;;;;;;;;;;;;;18.90;51.28;95564.88;2079223;28;1604;-62
2022/05/16 04:05:18;;;;;;;;;;;;;;;18.97;51.07;95563.13;2082784;28;1736;-59
2022/05/16 04:06:22;;;;;;;;;;;;;;;19.05;51.06;95564.03;2084436;28;1530;-60
2022/05/16 04:07:24;;;;;;;;;;;;;;;18.90;50.47;95561.41;2086596;28;1621;-58
2022/05/16 04:08:28;;;;;;;;;;;;;;;18.69;50.58;95570.16;2088897;28;1974;-58
2022/05/16 04:09:31;;;;;;;;;;;;;;;18.66;51.72;95568.69;2088808;28;1925;-60
2022/05/16 04:10:33;;;;;;;;;;;;;;;18.71;52.33;95562.81;2085210;28;1622;-59
2022/05/16 04:11:36;;;;;;;;;;;;;;;18.71;51.35;95568.13;2081002;28;1851;-59
2022/05/16 04:12:38;;;;;;;;;;;;;;;18.64;50.90;95565.38;2086312;28;986;-59
2022/05/16 04:13:41;;;;;;;;;;;;;;;18.47;50.91;95577.22;2083927;28;1056;-59
2022/05/16 04:14:44;;;;;;;;;;;;;;;18.33;51.56;95570.91;2084211;28;1488;-59
2022/05/16 04:15:47;;;;;;;;;;;;;;;18.25;51.38;95571.81;2088481;28;1124;-59
2022/05/16 04:16:49;;;;;;;;;;;;;;;18.15;51.63;95573.09;2088850;28;1786;-59
2022/05/16 04:17:52;;;;;;;;;;;;;;;18.07;51.98;95577.50;2088711;28;1504;-60
2022/05/16 04:18:54;;;;;;;;;;;;;;;18.04;52.50;95569.88;2087798;28;1534;-56
2022/05/16 04:19:57;;;;;;;;;;;;;;;18.10;52.42;95577.13;2089616;28;1176;-59
2022/05/16 04:20:59;;;;;;;;;;;;;;;18.01;52.30;95575.56;2089783;28;1910;-59
2022/05/16 04:22:03;;;;;;;;;;;;;;;18.00;52.39;95575.72;2085311;28;1097;-58
2022/05/16 04:23:08;;;;;;;;;;;;;;;17.92;52.32;95573.97;2084124;28;1612;-58
2022/05/16 04:24:10;;;;;;;;;;;;;;;18.03;53.12;95581.50;2089731;28;1025;-59
2022/05/16 04:25:16;;;;;;;;;;;;;;;18.16;52.60;95580.06;2089875;28;1246;-58
2022/05/16 04:26:19;;;;;;;;;;;;;;;18.22;52.10;95580.16;2087607;28;1924;-59
2022/05/16 04:27:22;;;;;;;;;;;;;;;18.17;52.58;95581.72;2082744;28;1184;-59
2022/05/16 04:28:24;;;;;;;;;;;;;;;18.08;52.71;95583.63;2080572;28;981;-59
2022/05/16 04:29:27;;;;;;;;;;;;;;;18.03;53.19;95586.00;2081271;28;1544;-59
2022/05/16 04:30:30;;;;;;;;;;;;;;;18.00;52.89;95586.38;2080792;28;1183;-59
2022/05/16 04:31:33;;;;;;;;;;;;;;;18.08;53.50;95586.28;2080605;28;1236;-58
2022/05/16 04:32:35;;;;;;;;;;;;;;;18.10;52.79;95582.44;2081444;28;1155;-58
2022/05/16 04:33:41;;;;;;;;;;;;;;;18.12;52.78;95574.28;2074432;28;1175;-59
2022/05/16 04:34:43;;;;;;;;;;;;;;;18.06;52.55;95569.69;2080126;28;1048;-59
2022/05/16 04:35:46;;;;;;;;;;;;;;;18.01;52.45;95577.38;2081559;28;1116;-59
2022/05/16 04:36:49;;;;;;;;;;;;;;;17.99;52.99;95574.09;2081676;28;1018;-59
2022/05/16 04:37:51;;;;;;;;;;;;;;;17.89;52.39;95587.63;2080430;28;1017;-60
2022/05/16 04:38:54;;;;;;;;;;;;;;;17.89;52.93;95587.63;2080681;28;1014;-59
2022/05/16 04:39:58;;;;;;;;;;;;;;;17.86;52.62;95586.16;2080718;28;1120;-59
2022/05/16 04:43:42;;;;;;;;;;;;;;;17.82;52.88;95594.69;2080743;28;1975;-58
2022/05/16 04:44:44;;;;;;;;;;;;;;;17.92;52.66;95584.59;2076504;28;997;-59
2022/05/16 04:45:48;;;;;;;;;;;;;;;17.95;52.26;95589.56;2075818;28;1665;-59
2022/05/16 04:46:51;;;;;;;;;;;;;;;17.95;52.12;95599.38;2080816;28;1434;-58
2022/05/16 04:47:55;;;;;;;;;;;;;;;17.97;52.09;95592.88;2080808;28;1132;-59
2022/05/16 04:48:58;;;;;;;;;;;;;;;18.00;51.61;95592.50;2080525;28;1211;-59
2022/05/16 04:50:00;;;;;;;;;;;;;;;18.06;52.08;95597.09;2080617;28;1001;-59
2022/05/16 04:51:02;;;;;;;;;;;;;;;18.04;51.21;95596.47;2080798;28;954;-58
2022/05/16 04:52:05;;;;;;;;;;;;;;;17.92;50.85;95595.25;2080787;28;1055;-59
2022/05/16 04:53:07;;;;;;;;;;;;;;;17.85;50.85;95602.31;2080927;28;1972;-59
2022/05/16 04:54:09;;;;;;;;;;;;;;;17.88;51.61;95604.59;2081467;28;1044;-58
2022/05/16 04:55:12;;;;;;;;;;;;;;;17.87;51.20;95602.97;2081743;28;1080;-59
2022/05/16 04:56:15;;;;;;;;;;;;;;;17.89;51.64;95600.94;2077975;28;1168;-59
2022/05/16 04:57:17;;;;;;;;;;;;;;;17.88;50.98;95602.75;2078321;28;1143;-59
2022/05/16 04:58:20;;;;;;;;;;;;;;;17.86;51.16;95599.44;2083099;28;1081;-58
2022/05/16 04:59:23;;;;;;;;;;;;;;;17.89;51.08;95606.25;2082801;28;1113;-59
2022/05/16 05:00:26;;;;;;;;;;;;;;;17.85;50.63;95604.97;2082711;28;997;-58
2022/05/16 05:01:30;;;;;;;;;;;;;;;17.86;51.38;95603.94;2082915;28;1973;-59
2022/05/16 05:02:32;;;;;;;;;;;;;;;17.90;51.72;95609.72;2083064;28;1428;-58
2022/05/16 05:03:35;;;;;;;;;;;;;;;17.85;51.06;95604.97;2082959;28;1037;-57
2022/05/16 05:04:37;;;;;;;;;;;;;;;17.81;51.08;95604.50;2082615;28;1152;-58
2022/05/16 05:05:39;;;;;;;;;;;;;;;17.88;51.08;95608.06;2082804;28;1001;-59
2022/05/16 05:06:42;;;;;;;;;;;;;;;17.85;51.25;95602.31;2082985;28;1111;-59
2022/05/16 05:07:45;;;;;;;;;;;;;;;17.85;51.36;95602.31;2077079;28;1179;-59
2022/05/16 05:08:47;;;;;;;;;;;;;;;17.82;51.19;95600.81;2089896;28;1238;-58
2022/05/16 05:15:12;;;;;;;;;;;;;;;17.96;51.93;95609.84;2090766;28;1090;-59
2022/05/16 05:16:16;;;;;;;;;;;;;;;17.99;51.40;95606.81;2090900;28;2062;-59
2022/05/16 05:17:21;;;;;;;;;;;;;;;17.99;51.51;95606.81;2090956;28;1092;-59
2022/05/16 05:18:23;;;;;;;;;;;;;;;17.96;51.45;95606.38;2089221;28;922;-59
2022/05/16 05:19:26;;;;;;;;;;;;;;;17.98;51.15;95607.00;2083756;28;1204;-58
2022/05/16 05:20:28;;;;;;;;;;;;;;;17.99;50.95;95609.47;2090778;28;1176;-58
2022/05/16 05:21:30;;;;;;;;;;;;;;;17.95;51.01;95615.31;2090935;28;1988;-60
2022/05/16 05:22:34;;;;;;;;;;;;;;;17.94;50.94;95614.50;2090712;28;1108;-58
2022/05/16 05:23:38;;;;;;;;;;;;;;;17.98;51.41;95617.63;2090893;28;1104;-59
2022/05/16 05:24:41;;;;;;;;;;;;;;;18.03;51.14;95612.59;2091178;28;1093;-58
2022/05/16 05:25:43;;;;;;;;;;;;;;;18.09;50.71;95611.88;2090939;28;1895;-59
2022/05/16 05:26:46;;;;;;;;;;;;;;;18.24;51.39;95609.22;2090885;28;1207;-58
2022/05/16 05:27:48;;;;;;;;;;;;;;;18.36;51.05;95621.09;2090942;28;1067;-59
2022/05/16 05:28:51;;;;;;;;;;;;;;;18.27;50.30;95619.53;2090988;28;1089;-59
2022/05/16 05:29:54;;;;;;;;;;;;;;;18.18;50.99;95618.78;2085866;28;1108;-60
2022/05/16 05:30:57;;;;;;;;;;;;;;;18.25;50.69;95619.69;2085619;28;1225;-58
2022/05/16 05:32:00;;;;;;;;;;;;;;;18.32;51.72;95625.09;2090860;28;1096;-58
2022/05/16 05:33:03;;;;;;;;;;;;;;;18.38;51.46;95620.88;2090820;28;1184;-58
2022/05/16 05:34:06;;;;;;;;;;;;;;;18.41;50.84;95626.69;2090686;28;1056;-59
2022/05/16 05:35:12;;;;;;;;;;;;;;;18.40;50.02;95619.69;2091102;28;1292;-58
2022/05/16 05:36:15;;;;;;;;;;;;;;;18.46;50.63;95623.47;2090923;28;1010;-59
2022/05/16 05:37:17;;;;;;;;;;;;;;;18.54;50.55;95623.38;2090554;28;1010;-58
2022/05/16 05:38:21;;;;;;;;;;;;;;;18.59;50.84;95622.84;2090797;28;1014;-59
2022/05/16 05:39:22;;;;;;;;;;;;;;;18.53;50.83;95621.72;2090587;28;1107;-58
2022/05/16 05:40:25;;;;;;;;;;;;;;;18.49;50.57;95623.91;2090787;28;1192;-59
2022/05/16 05:41:28;;;;;;;;;;;;;;;18.51;50.76;95621.91;2086208;28;1914;-59
2022/05/16 05:42:31;;;;;;;;;;;;;;;18.55;50.08;95623.19;2085991;28;1212;-59
2022/05/16 05:43:33;;;;;;;;;;;;;;;18.64;50.54;95623.09;2090698;28;1016;-59
2022/05/16 05:44:36;;;;;;;;;;;;;;;18.71;50.55;95626.69;2090609;28;1121;-59
2022/05/16 05:45:38;;;;;;;;;;;;;;;18.71;50.27;95619.53;2090822;28;1028;-58
2022/05/16 05:46:41;;;;;;;;;;;;;;;18.78;50.68;95616.97;2090785;28;1101;-59
2022/05/16 05:47:43;;;;;;;;;;;;;;;18.92;50.50;95618.78;2090679;28;1959;-60
2022/05/16 05:48:47;;;;;;;;;;;;;;;18.95;49.69;95621.09;2090505;28;1196;-58
2022/05/16 05:49:51;;;;;;;;;;;;;;;18.96;49.74;95620.06;2090515;28;1128;-58
2022/05/16 05:50:53;;;;;;;;;;;;;;;18.92;49.27;95617.94;2090751;28;1200;-58